Time;durP1;ratioP1;P1;durP2;ratioP2;P2;SDS_P1;SDS_P2;PMS_P1;PMS_P2;Temp;Humidity;BMP_temperature;BMP_pressure;BME280_temperature;BME280_humidity;BME280_pressure;Samples;Min_cycle;Max_cycle;Signal;HPM_P1;HPM_P2
2023/03/11 00:01:53;;;;;;;1.05;1.05;;;3.00;99.90;;;;;;4962341;28;20062;-40
2023/03/11 00:04:18;;;;;;;1.05;1.05;;;2.90;99.90;;;;;;4960779;28;20031;-40
2023/03/11 00:06:44;;;;;;;1.10;1.10;;;2.90;99.90;;;;;;4957150;28;20023;-40
2023/03/11 00:09:09;;;;;;;0.90;0.90;;;2.90;99.90;;;;;;4963808;28;20101;-40
2023/03/11 00:11:35;;;;;;;0.88;0.88;;;2.90;99.90;;;;;;4962505;28;20031;-40
2023/03/11 00:14:00;;;;;;;1.10;1.08;;;2.80;99.90;;;;;;4960042;28;20066;-41
2023/03/11 00:16:26;;;;;;;0.93;0.93;;;2.80;99.90;;;;;;4961826;28;20031;-40
2023/03/11 00:18:52;;;;;;;1.02;1.02;;;2.80;99.90;;;;;;4959540;28;20054;-40
2023/03/11 00:21:19;;;;;;;0.80;0.80;;;2.80;99.90;;;;;;4959057;28;20034;-40
2023/03/11 00:23:45;;;;;;;1.10;1.10;;;2.80;99.90;;;;;;4961158;28;20476;-40
2023/03/11 00:26:10;;;;;;;1.38;1.30;;;2.80;99.90;;;;;;4958080;28;20047;-41
2023/03/11 00:28:36;;;;;;;0.98;0.98;;;2.90;99.90;;;;;;4967745;28;20484;-40
2023/03/11 00:31:03;;;;;;;1.20;1.20;;;2.80;99.90;;;;;;4959377;28;20131;-39
2023/03/11 00:33:29;;;;;;;0.90;0.90;;;2.80;99.90;;;;;;4960488;28;20548;-40
2023/03/11 00:35:54;;;;;;;1.10;1.10;;;2.80;99.90;;;;;;4961410;28;20118;-40
2023/03/11 00:38:21;;;;;;;1.05;1.05;;;2.80;99.90;;;;;;4964013;28;20481;-40
2023/03/11 00:40:47;;;;;;;3.30;1.15;;;2.70;99.90;;;;;;4960239;28;20027;-40
2023/03/11 00:43:14;;;;;;;1.10;1.10;;;2.60;99.90;;;;;;4968436;28;20031;-40
2023/03/11 00:45:40;;;;;;;0.95;0.95;;;2.50;99.90;;;;;;4961806;28;20505;-40
2023/03/11 00:48:06;;;;;;;0.95;0.95;;;2.50;99.90;;;;;;4957674;28;20090;-40
2023/03/11 00:50:34;;;;;;;1.02;1.00;;;2.50;99.90;;;;;;4948640;28;20181;-40
2023/03/11 00:53:00;;;;;;;0.90;0.90;;;2.50;98.90;;;;;;4943667;28;20058;-40
2023/03/11 00:55:31;;;;;;;1.23;1.00;;;2.50;99.90;;;;;;4937919;28;20557;-40
2023/03/11 00:57:58;;;;;;;0.80;0.80;;;2.50;99.90;;;;;;4954987;28;20131;-42
2023/03/11 01:00:25;;;;;;;0.77;0.77;;;2.40;98.70;;;;;;4936892;28;20047;-40
2023/03/11 01:02:53;;;;;;;1.10;1.10;;;2.40;99.90;;;;;;4941524;28;20580;-40
2023/03/11 01:05:21;;;;;;;0.80;0.80;;;2.40;99.20;;;;;;4951528;28;20434;-40
2023/03/11 01:07:47;;;;;;;1.10;1.10;;;2.30;99.90;;;;;;4949384;28;20392;-40
2023/03/11 01:10:12;;;;;;;0.90;0.90;;;2.30;99.90;;;;;;4944942;28;20120;-40
2023/03/11 01:12:38;;;;;;;1.48;1.27;;;2.20;99.90;;;;;;4949710;28;20039;-40
2023/03/11 01:15:04;;;;;;;0.90;0.90;;;2.20;99.90;;;;;;4940110;28;20081;-40
2023/03/11 01:17:30;;;;;;;1.00;1.00;;;2.20;99.90;;;;;;4944345;28;20035;-40
2023/03/11 01:19:55;;;;;;;1.02;1.02;;;2.10;99.90;;;;;;4943281;28;20388;-40
2023/03/11 01:22:21;;;;;;;0.77;0.77;;;2.10;99.90;;;;;;4952016;28;20540;-41
2023/03/11 01:24:47;;;;;;;2.70;1.00;;;2.10;99.90;;;;;;4943762;28;20080;-41
2023/03/11 01:27:12;;;;;;;1.05;1.05;;;2.00;99.90;;;;;;4938931;28;20031;-40
2023/03/11 01:29:38;;;;;;;1.10;1.00;;;2.00;99.90;;;;;;4938989;28;20580;-41
2023/03/11 01:32:05;;;;;;;0.93;0.93;;;2.10;99.90;;;;;;4937591;28;20122;-40
2023/03/11 01:34:34;;;;;;;1.00;1.00;;;2.00;99.90;;;;;;4950117;28;20034;-40
2023/03/11 01:37:01;;;;;;;0.90;0.90;;;2.00;99.90;;;;;;4946787;28;20473;-40
2023/03/11 01:39:26;;;;;;;0.90;0.90;;;1.90;99.90;;;;;;4952194;28;20057;-40
2023/03/11 01:41:52;;;;;;;1.33;1.23;;;1.80;99.90;;;;;;4944953;28;20035;-40
2023/03/11 01:44:18;;;;;;;1.30;1.30;;;1.90;99.90;;;;;;4940961;28;20050;-41
2023/03/11 01:46:52;;;;;;;0.98;0.98;;;1.90;99.90;;;;;;4941001;28;20031;-41
2023/03/11 01:49:20;;;;;;;1.10;1.10;;;1.80;99.90;;;;;;4947302;28;20086;-40
2023/03/11 01:51:50;;;;;;;0.90;0.90;;;1.70;99.90;;;;;;4940005;28;20023;-40
2023/03/11 01:54:25;;;;;;;0.90;0.90;;;1.70;99.90;;;;;;4948363;28;20265;-40
2023/03/11 01:56:51;;;;;;;0.90;0.90;;;1.70;99.90;;;;;;4945316;28;20142;-40
2023/03/11 01:59:21;;;;;;;1.30;1.20;;;1.70;99.90;;;;;;4939002;28;20042;-40
2023/03/11 02:02:28;;;;;;;1.25;1.15;;;1.60;99.90;;;;;;4945223;28;20039;-40
2023/03/11 02:04:54;;;;;;;1.05;1.05;;;1.60;99.90;;;;;;4956687;28;20055;-40
2023/03/11 02:07:20;;;;;;;1.20;1.20;;;1.70;99.90;;;;;;4941831;28;20055;-40
2023/03/11 02:09:46;;;;;;;0.80;0.80;;;1.70;99.90;;;;;;4949547;28;20528;-40
2023/03/11 02:12:14;;;;;;;1.10;1.00;;;1.70;99.90;;;;;;4948086;28;20031;-40
2023/03/11 02:14:45;;;;;;;1.27;1.20;;;1.70;99.90;;;;;;4939325;28;20039;-40
2023/03/11 02:17:12;;;;;;;1.58;1.33;;;1.60;99.90;;;;;;4941776;28;20165;-40
2023/03/11 02:20:00;;;;;;;1.10;1.10;;;1.70;99.90;;;;;;4939910;28;20041;-41
2023/03/11 02:22:32;;;;;;;;;;;1.70;99.90;;;;;;4946788;28;20035;-41
2023/03/11 02:25:13;;;;;;;1.23;1.05;;;1.70;99.90;;;;;;4942794;28;21238;-41
2023/03/11 02:27:43;;;;;;;0.90;0.90;;;1.70;99.90;;;;;;4949661;28;22802;-41
2023/03/11 02:30:11;;;;;;;1.30;1.08;;;1.60;99.90;;;;;;4940202;28;22513;-41
2023/03/11 02:32:37;;;;;;;0.98;0.98;;;1.60;99.90;;;;;;4944774;28;20594;-45
2023/03/11 02:35:03;;;;;;;1.35;1.27;;;1.60;99.90;;;;;;4959635;28;20155;-41
2023/03/11 02:37:29;;;;;;;1.20;1.20;;;1.50;99.90;;;;;;4948482;28;20084;-41
2023/03/11 02:40:20;;;;;;;1.20;1.15;;;1.50;99.90;;;;;;4943828;28;20490;-41
2023/03/11 02:42:47;;;;;;;1.25;1.25;;;1.50;99.90;;;;;;4939594;28;20031;-41
2023/03/11 02:45:17;;;;;;;1.10;1.10;;;1.50;99.90;;;;;;4946424;28;20117;-41
2023/03/11 02:47:42;;;;;;;1.35;1.35;;;1.40;99.90;;;;;;4945851;28;20493;-41
2023/03/11 02:50:10;;;;;;;1.20;1.20;;;1.40;99.90;;;;;;4940975;28;20047;-41
2023/03/11 02:52:36;;;;;;;3.00;1.43;;;1.40;99.90;;;;;;4941937;28;20549;-41
2023/03/11 02:55:03;;;;;;;1.08;1.08;;;1.60;99.90;;;;;;4949288;28;20043;-41
2023/03/11 02:57:29;;;;;;;1.17;1.17;;;1.50;99.90;;;;;;4971488;28;20053;-41
2023/03/11 02:59:54;;;;;;;1.20;1.15;;;1.50;99.90;;;;;;4938930;28;20392;-41
2023/03/11 03:02:20;;;;;;;1.20;1.20;;;1.50;99.90;;;;;;4939323;28;20059;-42
2023/03/11 03:04:45;;;;;;;1.20;1.15;;;1.60;99.90;;;;;;4943254;28;20031;-41
2023/03/11 03:07:11;;;;;;;1.38;1.27;;;1.60;99.90;;;;;;4939983;28;20486;-41
2023/03/11 03:09:37;;;;;;;1.42;1.30;;;1.50;99.90;;;;;;4940087;28;20023;-41
2023/03/11 03:12:03;;;;;;;2.33;1.30;;;1.50;99.90;;;;;;4939482;28;20030;-41
2023/03/11 03:14:30;;;;;;;0.90;0.90;;;1.50;99.90;;;;;;4942018;28;20030;-41
2023/03/11 03:16:55;;;;;;;0.90;0.90;;;1.50;99.90;;;;;;4939945;28;20032;-41
2023/03/11 03:19:21;;;;;;;0.88;0.88;;;1.50;99.90;;;;;;4945888;28;20108;-41
2023/03/11 03:21:47;;;;;;;1.00;1.00;;;1.50;99.90;;;;;;4950564;28;20560;-41
2023/03/11 03:24:12;;;;;;;1.30;1.30;;;1.50;99.90;;;;;;4946729;28;20036;-41
2023/03/11 03:26:38;;;;;;;1.13;1.13;;;1.50;99.90;;;;;;4964514;28;20118;-40
2023/03/11 03:29:04;;;;;;;0.90;0.90;;;1.50;99.90;;;;;;4954052;28;20035;-41
2023/03/11 03:31:30;;;;;;;1.05;1.05;;;1.60;99.90;;;;;;4941426;28;20372;-41
2023/03/11 03:33:56;;;;;;;0.82;0.82;;;1.60;99.90;;;;;;4941668;28;20049;-41
2023/03/11 03:36:21;;;;;;;1.40;1.30;;;1.60;99.90;;;;;;4939685;28;20046;-41
2023/03/11 03:38:47;;;;;;;0.80;0.80;;;1.60;99.90;;;;;;4949572;28;20031;-41
2023/03/11 03:41:17;;;;;;;0.95;0.95;;;1.60;99.90;;;;;;4941468;28;20031;-41
2023/03/11 03:43:42;;;;;;;1.30;1.20;;;1.60;99.90;;;;;;4945712;28;20034;-41
2023/03/11 03:46:08;;;;;;;0.90;0.90;;;1.60;99.90;;;;;;4948949;28;20027;-41
2023/03/11 03:48:33;;;;;;;2.05;1.92;;;1.70;99.90;;;;;;4941350;28;20110;-41
2023/03/11 03:51:03;;;;;;;2.03;1.45;;;1.70;99.90;;;;;;4944917;28;20546;-41
2023/03/11 03:53:30;;;;;;;1.00;1.00;;;1.70;99.90;;;;;;4945045;28;20500;-41
2023/03/11 03:55:55;;;;;;;0.90;0.90;;;1.70;99.90;;;;;;4951361;28;20035;-42
2023/03/11 03:58:21;;;;;;;0.85;0.85;;;1.70;99.90;;;;;;4946727;28;20085;-41
2023/03/11 04:00:46;;;;;;;1.50;1.10;;;1.70;99.90;;;;;;4948016;28;20105;-40
2023/03/11 04:03:12;;;;;;;1.13;1.02;;;1.70;99.90;;;;;;4937710;28;20035;-41
2023/03/11 04:05:37;;;;;;;1.05;1.05;;;1.70;99.90;;;;;;4942266;28;20031;-41
2023/03/11 04:08:03;;;;;;;1.13;1.10;;;1.60;99.90;;;;;;4947379;28;20031;-45
2023/03/11 04:10:29;;;;;;;0.90;0.90;;;1.60;99.90;;;;;;4961565;28;20492;-41
2023/03/11 04:12:54;;;;;;;1.30;1.08;;;1.50;99.90;;;;;;4969708;28;20030;-41
2023/03/11 04:15:20;;;;;;;1.55;1.30;;;1.50;99.90;;;;;;4964078;28;20038;-41
2023/03/11 04:17:46;;;;;;;1.20;1.20;;;1.40;99.90;;;;;;4964289;28;20119;-41
2023/03/11 04:20:11;;;;;;;0.93;0.93;;;1.40;99.90;;;;;;4958263;28;20027;-41
2023/03/11 04:22:37;;;;;;;1.25;1.15;;;1.30;99.90;;;;;;4963075;28;20034;-41
2023/03/11 04:25:03;;;;;;;1.00;1.00;;;1.30;99.90;;;;;;4958959;28;20097;-41
2023/03/11 04:27:28;;;;;;;0.90;0.90;;;1.20;99.90;;;;;;4950442;28;20027;-41
2023/03/11 04:29:54;;;;;;;0.95;0.95;;;1.20;99.90;;;;;;4958146;28;20035;-41
2023/03/11 04:32:21;;;;;;;0.90;0.90;;;1.20;99.90;;;;;;4962846;28;20033;-41
2023/03/11 04:34:48;;;;;;;1.60;1.52;;;1.10;99.90;;;;;;4960833;28;20042;-41
2023/03/11 04:37:14;;;;;;;0.70;0.70;;;1.10;99.90;;;;;;4943413;28;20039;-41
2023/03/11 04:39:39;;;;;;;1.42;1.33;;;1.10;99.90;;;;;;4951079;28;20031;-41
2023/03/11 04:42:05;;;;;;;1.10;1.10;;;1.10;99.90;;;;;;4949257;28;20029;-41
2023/03/11 04:44:30;;;;;;;2.28;1.33;;;1.00;99.90;;;;;;4945031;28;20104;-42
2023/03/11 04:46:56;;;;;;;1.10;1.10;;;0.90;99.90;;;;;;4941810;28;20119;-41
2023/03/11 04:49:22;;;;;;;1.02;1.02;;;0.80;99.90;;;;;;4937964;28;20208;-41
2023/03/11 04:51:47;;;;;;;1.48;1.35;;;0.80;99.90;;;;;;4939374;28;20117;-41
2023/03/11 04:54:13;;;;;;;1.23;1.10;;;0.80;99.90;;;;;;4955960;28;20035;-41
2023/03/11 04:56:38;;;;;;;0.95;0.95;;;0.80;99.90;;;;;;4958702;28;20519;-41
2023/03/11 04:59:04;;;;;;;0.82;0.82;;;0.70;99.90;;;;;;4958955;28;20157;-41
2023/03/11 05:01:30;;;;;;;1.20;1.20;;;0.70;99.90;;;;;;4963553;28;20127;-41
2023/03/11 05:03:55;;;;;;;1.65;1.38;;;0.70;99.90;;;;;;4959527;28;20039;-41
2023/03/11 05:06:21;;;;;;;1.05;1.05;;;0.60;99.90;;;;;;4946114;28;20468;-41
2023/03/11 05:08:46;;;;;;;1.48;1.30;;;0.60;99.90;;;;;;4939451;28;20106;-41
2023/03/11 05:11:12;;;;;;;2.78;1.20;;;0.60;99.90;;;;;;4941782;28;20027;-41
2023/03/11 05:13:37;;;;;;;1.10;1.10;;;0.60;99.90;;;;;;4941383;28;20042;-41
2023/03/11 05:16:03;;;;;;;1.10;1.10;;;0.50;99.90;;;;;;4936030;28;20041;-41
2023/03/11 05:18:31;;;;;;;1.20;1.10;;;0.40;99.90;;;;;;4939886;28;20085;-41
2023/03/11 05:20:57;;;;;;;0.88;0.88;;;0.50;99.90;;;;;;4936688;28;20109;-41
2023/03/11 05:23:22;;;;;;;1.33;1.33;;;0.40;99.90;;;;;;4938328;28;20556;-41
2023/03/11 05:25:48;;;;;;;1.55;1.45;;;0.40;99.90;;;;;;4937187;28;20109;-41
2023/03/11 05:28:13;;;;;;;1.35;1.35;;;0.50;99.90;;;;;;4956340;28;20102;-41
2023/03/11 05:30:39;;;;;;;1.75;1.63;;;0.50;99.90;;;;;;4941339;28;20054;-41
2023/03/11 05:33:05;;;;;;;1.40;1.38;;;0.50;99.90;;;;;;4939898;28;20122;-41
2023/03/11 05:35:30;;;;;;;1.98;1.88;;;0.40;99.90;;;;;;4953157;28;20038;-41
2023/03/11 05:37:56;;;;;;;1.38;1.30;;;0.40;99.90;;;;;;4953662;28;20034;-41
2023/03/11 05:40:21;;;;;;;1.23;1.23;;;0.40;99.90;;;;;;4960483;28;20242;-41
2023/03/11 05:42:47;;;;;;;2.38;1.20;;;0.30;99.90;;;;;;4962407;28;20033;-41
2023/03/11 05:45:13;;;;;;;1.48;1.40;;;0.40;99.90;;;;;;4954062;28;20027;-41
2023/03/11 05:47:41;;;;;;;1.33;1.30;;;0.40;99.90;;;;;;4962207;28;20077;-41
2023/03/11 05:50:07;;;;;;;2.30;1.40;;;0.40;99.90;;;;;;4964593;28;20043;-41
2023/03/11 05:52:32;;;;;;;1.30;1.30;;;0.30;99.90;;;;;;4963103;28;20031;-41
2023/03/11 05:54:58;;;;;;;1.50;1.40;;;0.30;99.90;;;;;;4962873;28;20500;-41
2023/03/11 05:57:24;;;;;;;5.80;1.50;;;0.30;99.90;;;;;;4942885;28;20889;-41
2023/03/11 05:59:49;;;;;;;4.63;1.92;;;0.20;99.90;;;;;;4940138;28;20393;-41
2023/03/11 06:02:15;;;;;;;1.33;1.33;;;0.20;99.90;;;;;;4939700;28;20065;-41
2023/03/11 06:04:41;;;;;;;2.13;1.42;;;0.20;99.90;;;;;;4942375;28;20034;-41
2023/03/11 06:07:06;;;;;;;1.20;1.20;;;0.30;99.90;;;;;;4941039;28;20031;-41
2023/03/11 06:09:35;;;;;;;1.20;1.20;;;0.20;99.90;;;;;;4945667;28;20125;-41
2023/03/11 06:12:02;;;;;;;1.30;1.20;;;0.20;99.90;;;;;;4941568;28;20019;-41
2023/03/11 06:14:30;;;;;;;2.08;1.40;;;0.30;99.90;;;;;;4942491;28;20381;-41
2023/03/11 06:16:56;;;;;;;1.27;1.27;;;0.30;99.90;;;;;;4939535;28;20039;-41
2023/03/11 06:19:22;;;;;;;1.50;1.40;;;0.30;99.90;;;;;;4942217;28;20124;-41
2023/03/11 06:21:47;;;;;;;1.90;1.70;;;0.30;99.90;;;;;;4948123;28;20044;-41
2023/03/11 06:24:13;;;;;;;1.77;1.35;;;0.30;99.90;;;;;;4942732;28;20142;-41
2023/03/11 06:26:39;;;;;;;1.08;1.08;;;0.20;99.90;;;;;;4939777;28;20037;-40
2023/03/11 06:29:11;;;;;;;1.83;1.55;;;0.30;99.90;;;;;;4946134;28;20023;-41
2023/03/11 06:31:38;;;;;;;3.17;1.55;;;0.30;99.90;;;;;;4958103;28;20043;-41
2023/03/11 06:34:05;;;;;;;3.28;1.52;;;0.30;99.90;;;;;;4942515;28;20042;-41
2023/03/11 06:36:31;;;;;;;1.38;1.27;;;0.20;99.90;;;;;;4949327;28;20027;-41
2023/03/11 06:38:57;;;;;;;1.30;1.20;;;0.20;99.90;;;;;;4962988;28;20038;-41
2023/03/11 06:41:22;;;;;;;1.27;1.27;;;0.20;99.90;;;;;;4959935;28;20035;-41
2023/03/11 06:43:48;;;;;;;1.08;1.08;;;0.20;99.90;;;;;;4959626;28;20110;-41
2023/03/11 06:46:21;;;;;;;2.00;1.35;;;0.10;99.90;;;;;;4963910;28;20061;-41
2023/03/11 06:48:50;;;;;;;1.15;1.15;;;0.10;99.90;;;;;;4966476;28;20042;-41
2023/03/11 06:51:17;;;;;;;1.30;1.20;;;0.10;99.90;;;;;;4961825;28;20424;-41
2023/03/11 06:53:43;;;;;;;1.30;1.20;;;0.10;99.90;;;;;;4957823;28;20523;-41
2023/03/11 06:56:11;;;;;;;2.28;1.42;;;0.10;99.90;;;;;;4957048;28;20412;-41
2023/03/11 06:58:38;;;;;;;1.20;1.20;;;0.20;99.90;;;;;;4967410;28;20085;-41
2023/03/11 07:01:12;;;;;;;1.30;1.30;;;0.20;99.90;;;;;;4963017;28;20494;-41
2023/03/11 07:03:39;;;;;;;1.05;1.02;;;0.30;99.90;;;;;;4962377;28;20039;-41
2023/03/11 07:06:05;;;;;;;1.23;1.23;;;0.30;99.90;;;;;;4975372;28;20121;-41
2023/03/11 07:08:31;;;;;;;0.98;0.98;;;0.20;99.90;;;;;;4962918;28;20027;-41
2023/03/11 07:11:11;;;;;;;1.42;1.13;;;0.20;99.90;;;;;;4960136;28;20034;-41
2023/03/11 07:13:36;;;;;;;0.80;0.80;;;0.20;99.90;;;;;;4966900;28;20054;-41
2023/03/11 07:16:07;;;;;;;1.17;1.17;;;0.20;99.90;;;;;;4971170;28;20452;-41
2023/03/11 07:18:35;;;;;;;2.05;1.35;;;0.20;99.90;;;;;;4963654;28;20027;-41
2023/03/11 07:21:05;;;;;;;1.35;1.20;;;0.20;99.90;;;;;;4956082;28;20379;-40
2023/03/11 07:23:31;;;;;;;0.90;0.90;;;0.20;99.90;;;;;;4986685;28;20433;-42
2023/03/11 07:25:57;;;;;;;1.25;1.25;;;0.30;99.90;;;;;;4954153;28;20031;-41
2023/03/11 07:28:24;;;;;;;1.30;1.20;;;0.40;99.90;;;;;;4955669;28;20396;-41
2023/03/11 07:30:50;;;;;;;1.20;1.20;;;0.40;99.90;;;;;;4953780;28;20040;-41
2023/03/11 07:33:16;;;;;;;1.60;1.50;;;0.50;99.90;;;;;;4970847;28;20026;-41
2023/03/11 07:35:42;;;;;;;1.10;1.00;;;0.60;99.90;;;;;;4975815;28;20029;-41
2023/03/11 07:38:08;;;;;;;0.95;0.95;;;0.60;99.90;;;;;;4962009;28;20042;-41
2023/03/11 07:40:34;;;;;;;2.70;2.60;;;0.80;99.90;;;;;;4960594;28;20477;-41
2023/03/11 07:43:00;;;;;;;1.00;1.00;;;0.80;99.90;;;;;;4966711;28;20034;-41
2023/03/11 07:45:25;;;;;;;1.50;1.40;;;0.90;99.90;;;;;;4959816;28;20493;-41
2023/03/11 07:47:51;;;;;;;2.53;1.10;;;1.00;99.90;;;;;;4956439;28;20035;-41
2023/03/11 07:50:18;;;;;;;1.30;1.20;;;1.20;99.90;;;;;;4961966;28;20428;-41
2023/03/11 07:52:43;;;;;;;1.10;1.10;;;1.40;99.90;;;;;;4969791;28;20034;-41
2023/03/11 07:55:09;;;;;;;3.78;1.23;;;1.50;99.90;;;;;;4961548;28;20101;-41
2023/03/11 07:57:34;;;;;;;1.15;1.05;;;1.60;99.90;;;;;;4965557;28;20027;-41
2023/03/11 08:00:00;;;;;;;1.23;1.23;;;1.50;98.60;;;;;;4962450;28;20073;-41
2023/03/11 08:02:26;;;;;;;1.20;1.20;;;1.40;99.80;;;;;;4965898;28;20034;-41
2023/03/11 08:04:54;;;;;;;1.00;1.00;;;1.40;99.90;;;;;;4962584;28;20047;-41
2023/03/11 08:07:20;;;;;;;1.10;1.10;;;1.30;97.60;;;;;;4957268;28;20507;-41
2023/03/11 08:09:45;;;;;;;0.93;0.93;;;1.40;99.90;;;;;;4964774;28;20033;-40
2023/03/11 08:12:11;;;;;;;1.10;1.10;;;1.60;99.90;;;;;;4957512;28;20488;-40
2023/03/11 08:14:38;;;;;;;0.98;0.98;;;1.60;98.80;;;;;;4968247;28;20033;-40
2023/03/11 08:17:04;;;;;;;1.00;1.00;;;1.60;99.90;;;;;;4955806;28;20078;-40
2023/03/11 08:19:30;;;;;;;1.20;1.20;;;1.50;94.90;;;;;;4996361;28;20485;-41
2023/03/11 08:21:55;;;;;;;0.95;0.95;;;1.50;98.20;;;;;;4965557;28;20030;-40
2023/03/11 08:24:21;;;;;;;1.38;1.25;;;1.60;99.90;;;;;;4960058;28;20027;-40
2023/03/11 08:26:47;;;;;;;4.90;1.58;;;1.60;97.70;;;;;;4959551;28;20077;-40
2023/03/11 08:29:12;;;;;;;1.20;1.20;;;1.60;98.70;;;;;;4962643;28;20111;-40
2023/03/11 08:31:38;;;;;;;1.20;1.20;;;1.70;98.10;;;;;;4953977;28;20031;-40
2023/03/11 08:34:07;;;;;;;1.15;1.13;;;1.80;97.70;;;;;;4964477;28;20165;-40
2023/03/11 08:36:33;;;;;;;2.38;0.98;;;1.80;97.60;;;;;;4957432;28;20061;-40
2023/03/11 08:38:59;;;;;;;1.38;1.27;;;1.90;97.40;;;;;;4963104;28;20030;-40
2023/03/11 08:41:25;;;;;;;1.15;1.08;;;2.00;98.50;;;;;;4956518;28;20042;-40
2023/03/11 08:43:51;;;;;;;1.42;1.05;;;1.90;96.80;;;;;;4959198;28;20127;-40
2023/03/11 08:46:37;;;;;;;1.20;1.10;;;1.80;96.10;;;;;;4963805;28;20464;-40
2023/03/11 08:49:04;;;;;;;0.63;0.63;;;1.80;98.20;;;;;;4965975;28;20471;-40
2023/03/11 08:51:32;;;;;;;1.58;1.48;;;1.90;94.20;;;;;;4961645;28;20645;-40
2023/03/11 08:53:59;;;;;;;1.23;1.23;;;1.90;95.90;;;;;;4963031;28;20088;-40
2023/03/11 08:56:24;;;;;;;0.93;0.93;;;2.10;97.50;;;;;;4960465;28;20385;-40
2023/03/11 08:58:50;;;;;;;0.88;0.88;;;2.10;93.30;;;;;;4950842;28;20070;-40
2023/03/11 09:01:16;;;;;;;0.93;0.93;;;2.10;96.60;;;;;;4959840;28;20421;-41
2023/03/11 09:03:42;;;;;;;1.10;1.10;;;2.30;95.80;;;;;;4959827;28;20040;-40
2023/03/11 09:06:12;;;;;;;1.60;1.10;;;2.30;96.10;;;;;;4956227;28;20035;-39
2023/03/11 09:08:38;;;;;;;1.65;1.30;;;2.30;94.60;;;;;;4951887;28;20027;-40
2023/03/11 09:11:04;;;;;;;0.82;0.82;;;2.20;92.90;;;;;;4959904;28;20386;-40
2023/03/11 09:13:30;;;;;;;1.20;1.20;;;2.10;92.50;;;;;;4954978;28;20544;-39
2023/03/11 09:15:56;;;;;;;3.10;1.33;;;2.00;95.10;;;;;;4954715;28;20028;-40
2023/03/11 09:18:21;;;;;;;1.08;1.08;;;2.00;95.90;;;;;;4958829;28;20068;-40
2023/03/11 09:20:47;;;;;;;1.25;1.20;;;2.00;93.40;;;;;;4959243;28;20507;-40
2023/03/11 09:23:14;;;;;;;2.20;1.50;;;2.30;97.30;;;;;;4950231;28;20077;-40
2023/03/11 09:25:40;;;;;;;1.17;1.10;;;2.60;99.80;;;;;;4962231;28;20051;-40
2023/03/11 09:28:06;;;;;;;1.40;1.30;;;2.70;94.40;;;;;;4951487;28;20122;-40
2023/03/11 09:30:32;;;;;;;1.15;1.05;;;2.90;96.60;;;;;;4952666;28;20031;-39
2023/03/11 09:32:57;;;;;;;1.50;1.40;;;3.10;92.70;;;;;;4962286;28;20041;-40
2023/03/11 09:35:23;;;;;;;1.05;1.05;;;3.50;94.40;;;;;;4963213;28;20097;-40
2023/03/11 09:37:49;;;;;;;1.58;1.45;;;3.70;94.40;;;;;;4956996;28;20359;-40
2023/03/11 09:40:20;;;;;;;1.23;1.10;;;3.80;92.80;;;;;;4964656;28;20041;-40
2023/03/11 09:43:00;;;;;;;1.55;1.45;;;3.00;89.70;;;;;;4961914;28;20027;-39
2023/03/11 09:45:33;;;;;;;0.90;0.90;;;2.60;90.40;;;;;;4958972;28;20035;-40
2023/03/11 09:48:20;;;;;;;1.98;1.50;;;2.60;91.50;;;;;;4958443;28;20042;-40
2023/03/11 09:51:14;;;;;;;3.20;1.25;;;3.00;93.90;;;;;;4972321;28;20061;-40
2023/03/11 09:53:45;;;;;;;1.05;1.05;;;3.40;96.00;;;;;;4962148;28;20047;-40
2023/03/11 09:56:21;;;;;;;0.95;0.95;;;3.30;90.50;;;;;;4956048;28;20054;-39
2023/03/11 09:58:54;;;;;;;3.00;1.92;;;3.20;86.20;;;;;;4954810;28;20040;-40
2023/03/11 10:01:26;;;;;;;1.40;1.40;;;3.10;93.10;;;;;;4959173;28;20043;-40
2023/03/11 10:03:55;;;;;;;0.77;0.77;;;2.80;91.10;;;;;;4957964;28;20114;-41
2023/03/11 10:06:28;;;;;;;0.80;0.80;;;2.40;90.00;;;;;;4961910;28;20026;-41
2023/03/11 10:09:12;;;;;;;0.85;0.85;;;2.30;79.90;;;;;;4958407;28;20031;-41
2023/03/11 10:12:12;;;;;;;1.00;1.00;;;2.80;82.40;;;;;;4960395;28;20019;-40
2023/03/11 10:15:04;;;;;;;0.80;0.73;;;2.90;79.70;;;;;;4956756;28;20034;-41
2023/03/11 10:17:55;;;;;;;1.27;1.17;;;3.10;76.00;;;;;;4959202;28;20077;-40
2023/03/11 10:20:35;;;;;;;0.98;0.98;;;3.10;87.80;;;;;;4955585;28;20106;-40
2023/03/11 10:23:12;;;;;;;1.00;1.00;;;3.10;88.60;;;;;;4962436;28;20445;-40
2023/03/11 10:25:46;;;;;;;1.35;1.35;;;2.80;93.80;;;;;;4956257;28;20501;-40
2023/03/11 10:28:14;;;;;;;2.10;2.00;;;3.10;92.00;;;;;;4952502;28;20031;-41
2023/03/11 10:30:43;;;;;;;;;;;3.10;91.00;;;;;;4960130;28;20075;-40
2023/03/11 10:33:34;;;;;;;1.23;1.05;;;2.90;76.50;;;;;;4956102;28;19918;-40
2023/03/11 10:36:06;;;;;;;1.65;1.10;;;3.10;86.90;;;;;;4956872;28;20388;-40
2023/03/11 10:38:45;;;;;;;0.77;0.77;;;3.30;90.30;;;;;;4957265;28;20564;-40
2023/03/11 10:41:18;;;;;;;2.15;1.10;;;3.30;86.20;;;;;;4964845;28;20027;-40
2023/03/11 10:44:04;;;;;;;1.65;0.82;;;3.30;82.70;;;;;;4978335;28;20042;-40
2023/03/11 10:46:30;;;;;;;0.80;0.80;;;3.30;80.50;;;;;;4964810;28;20524;-40
2023/03/11 10:48:56;;;;;;;2.28;1.10;;;3.20;77.30;;;;;;4949818;28;20721;-40
2023/03/11 10:51:30;;;;;;;1.13;1.13;;;3.20;81.40;;;;;;4947350;28;20405;-40
2023/03/11 10:53:57;;;;;;;1.08;1.08;;;3.30;79.30;;;;;;4961445;28;20030;-40
2023/03/11 10:56:38;;;;;;;3.58;1.52;;;3.20;82.90;;;;;;4961956;28;20031;-40
2023/03/11 10:59:20;;;;;;;1.90;1.40;;;3.30;84.60;;;;;;4958118;28;20138;-40
2023/03/11 11:01:57;;;;;;;1.50;1.40;;;3.30;82.70;;;;;;4953606;28;20485;-40
2023/03/11 11:04:37;;;;;;;4.07;1.45;;;3.40;86.90;;;;;;4961343;28;20034;-40
2023/03/11 11:07:29;;;;;;;2.35;1.00;;;3.60;79.10;;;;;;4959676;28;20551;-40
2023/03/11 11:10:15;;;;;;;1.10;1.10;;;3.80;79.60;;;;;;4967035;28;20041;-40
2023/03/11 11:12:53;;;;;;;1.00;0.85;;;3.70;68.30;;;;;;4981399;28;20034;-40
2023/03/11 11:15:20;;;;;;;;;;;3.50;71.30;;;;;;4965040;28;20031;-40
2023/03/11 11:17:46;;;;;;;3.78;1.30;;;3.80;75.60;;;;;;4962044;28;20348;-40
2023/03/11 11:20:18;;;;;;;1.65;1.30;;;4.10;73.70;;;;;;4952609;28;20035;-40
2023/03/11 11:22:55;;;;;;;1.63;1.15;;;4.00;65.10;;;;;;4956580;28;20081;-39
2023/03/11 11:25:28;;;;;;;1.42;1.33;;;4.20;74.90;;;;;;4952752;28;20046;-40
2023/03/11 11:28:16;;;;;;;1.17;1.17;;;4.40;77.50;;;;;;4955336;28;20033;-40
2023/03/11 11:31:03;;;;;;;1.00;1.00;;;4.60;70.00;;;;;;4952758;28;20031;-40
2023/03/11 11:33:38;;;;;;;1.30;1.30;;;4.70;72.00;;;;;;4954883;28;20023;-40
2023/03/11 11:36:05;;;;;;;0.90;0.90;;;5.00;68.90;;;;;;4949891;28;20037;-40
2023/03/11 11:38:33;;;;;;;0.80;0.80;;;5.40;72.10;;;;;;4961932;28;20098;-40
2023/03/11 11:41:02;;;;;;;0.90;0.90;;;5.20;71.40;;;;;;4956183;28;20036;-40
2023/03/11 11:43:53;;;;;;;0.82;0.80;;;5.20;67.10;;;;;;4956977;28;20027;-40
2023/03/11 11:46:39;;;;;;;3.80;1.65;;;4.90;68.60;;;;;;4959397;28;20039;-40
2023/03/11 11:49:24;;;;;;;1.00;1.00;;;4.30;65.50;;;;;;4959725;28;20137;-39
2023/03/11 11:52:14;;;;;;;1.10;1.10;;;4.10;75.10;;;;;;4956605;28;20042;-40
2023/03/11 11:54:46;;;;;;;1.15;1.15;;;3.90;68.50;;;;;;4951563;28;20479;-40
2023/03/11 11:57:18;;;;;;;1.35;1.35;;;4.20;80.40;;;;;;4953529;28;20420;-40
2023/03/11 11:59:44;;;;;;;2.10;1.50;;;4.40;79.00;;;;;;4953144;28;20563;-40
2023/03/11 12:02:17;;;;;;;2.53;0.95;;;4.50;81.00;;;;;;4953890;28;20583;-40
2023/03/11 12:05:01;;;;;;;1.10;1.10;;;4.40;71.10;;;;;;4956093;28;20034;-40
2023/03/11 12:07:51;;;;;;;1.10;1.10;;;4.30;70.40;;;;;;4960084;28;20022;-40
2023/03/11 12:10:36;;;;;;;1.00;0.80;;;4.30;74.80;;;;;;4958037;28;20031;-40
2023/03/11 12:13:39;;;;;;;1.83;1.10;;;4.30;69.50;;;;;;4956180;28;20037;-40
2023/03/11 12:16:10;;;;;;;2.67;1.10;;;4.10;73.60;;;;;;4958015;28;20474;-40
2023/03/11 12:18:44;;;;;;;1.50;1.40;;;4.20;67.80;;;;;;4957181;28;20035;-40
2023/03/11 12:21:28;;;;;;;1.25;1.00;;;4.30;74.50;;;;;;4958186;28;20039;-40
2023/03/11 12:24:22;;;;;;;1.52;1.42;;;4.30;71.60;;;;;;4958790;28;20424;-40
2023/03/11 12:26:50;;;;;;;2.85;1.40;;;4.20;70.10;;;;;;4955989;28;20058;-40
2023/03/11 12:29:27;;;;;;;1.33;1.33;;;4.30;73.10;;;;;;4955107;28;20027;-40
2023/03/11 12:31:54;;;;;;;2.78;1.33;;;4.30;72.70;;;;;;4951183;28;20055;-40
2023/03/11 12:34:21;;;;;;;1.23;1.20;;;4.30;75.70;;;;;;4953833;28;20077;-40
2023/03/11 12:36:48;;;;;;;1.20;1.20;;;4.40;75.80;;;;;;4957645;28;20039;-39
2023/03/11 12:39:28;;;;;;;1.77;1.08;;;4.40;70.90;;;;;;4964154;28;20034;-40
2023/03/11 12:42:13;;;;;;;2.00;1.40;;;4.10;68.40;;;;;;4961037;28;20039;-40
2023/03/11 12:44:39;;;;;;;7.00;1.40;;;4.20;75.80;;;;;;4964772;28;20033;-40
2023/03/11 12:47:08;;;;;;;1.10;1.10;;;4.30;75.20;;;;;;4957768;28;20034;-40
2023/03/11 12:49:38;;;;;;;0.95;0.95;;;4.30;72.30;;;;;;4961817;28;20043;-40
2023/03/11 12:52:10;;;;;;;1.02;1.00;;;4.20;72.50;;;;;;4961446;28;20042;-40
2023/03/11 12:54:41;;;;;;;1.98;1.10;;;4.20;72.30;;;;;;4954645;28;20031;-39
2023/03/11 12:57:15;;;;;;;1.08;1.08;;;4.10;69.20;;;;;;4967916;28;20393;-40
2023/03/11 13:00:06;;;;;;;1.00;1.00;;;4.10;69.70;;;;;;4956139;28;20038;-40
2023/03/11 13:02:50;;;;;;;1.10;1.00;;;4.10;73.20;;;;;;4956906;28;20039;-40
2023/03/11 13:05:42;;;;;;;1.10;1.05;;;4.00;72.60;;;;;;4959826;28;20500;-40
2023/03/11 13:08:13;;;;;;;1.67;1.42;;;3.80;72.80;;;;;;4956333;28;20019;-40
2023/03/11 13:10:43;;;;;;;2.95;1.73;;;3.70;77.30;;;;;;4960423;28;20431;-40